Latest Weather Observations for Fort Denison

IDN60801

Issued at 6:03 am EDT Sunday 14 February 2016 (issued every 30 minutes, with the page automatically refreshed every 10 minutes)

About weather observations | Map of weather stations | Latest weather observations for NSW | Other Formats
Station Details ID: 066022 Name: FORT DENISON Lat: -33.86 Lon: 151.23 Height: 5.0 m
Data from the previous 72 hours. | See also: Recent months for locations in New South Wales
Date/Time
EDT
Temp
°C
App
Temp
°C
Dew
Point
Rel
Hum
%
Delta-T
°C
Wind Press
QNH
hPa
Press
MSL
hPa
Rain
since 9 am
mm
Dir
 
Spd
km/h
Gust
km/h
Spd
kts
Gust
kts
14/06:00am - - - - - N 4 7 2 4 - - -
14/05:30am - - - - - NE 4 11 2 6 - - -
14/05:00am - - - - - NE 7 11 4 6 - - -
14/04:30am - - - - - ENE 4 7 2 4 - - -
14/04:00am - - - - - NE 2 6 1 3 - - -
14/03:30am - - - - - NNE 6 11 3 6 - - -
14/03:00am - - - - - NE 4 9 2 5 - - -
14/02:30am - - - - - ENE 4 9 2 5 - - -
14/02:00am - - - - - ENE 6 9 3 5 - - -
14/01:30am - - - - - ENE 6 9 3 5 - - -
14/01:00am - - - - - E 9 11 5 6 - - -
14/12:30am - - - - - E 2 4 1 2 - - -
14/12:00am - - - - - NE 6 9 3 5 - - -
 
Date/Time
EDT
Temp
°C
App
Temp
°C
Dew
Point
Rel
Hum
%
Delta-T
°C
Wind Press
QNH
hPa
Press
MSL
hPa
Rain
since 9 am
mm
Dir
 
Spd
km/h
Gust
km/h
Spd
kts
Gust
kts
13/11:30pm - - - - - NNW 4 7 2 4 - - -
13/11:00pm - - - - - NNE 24 37 13 20 - - -
13/10:30pm - - - - - NNE 28 35 15 19 - - -
13/10:00pm - - - - - NNE 26 37 14 20 - - -
13/09:30pm - - - - - NNE 26 39 14 21 - - -
13/09:18pm - - - - - NNE 28 46 15 25 - - -
13/09:00pm - - - - - NNE 28 41 15 22 - - -
13/08:30pm - - - - - NNE 24 35 13 19 - - -
13/08:00pm - - - - - NNE 26 41 14 22 - - -
13/07:30pm - - - - - NNE 22 37 12 20 - - -
13/07:00pm - - - - - NE 20 35 11 19 - - -
13/06:30pm - - - - - NE 20 32 11 17 - - -
13/06:00pm - - - - - NE 20 30 11 16 - - -
13/05:30pm - - - - - NE 19 33 10 18 - - -
13/05:00pm - - - - - NE 20 35 11 19 - - -
13/04:30pm - - - - - ENE 28 39 15 21 - - -
13/04:00pm - - - - - ENE 33 41 18 22 - - -
13/03:30pm - - - - - ENE 22 35 12 19 - - -
13/03:00pm - - - - - NE 24 35 13 19 - - -
13/02:30pm - - - - - NE 20 28 11 15 - - -
13/02:00pm - - - - - ENE 22 28 12 15 - - -
13/01:30pm - - - - - ENE 24 28 13 15 - - -
13/01:00pm - - - - - ENE 24 30 13 16 - - -
13/12:30pm - - - - - ENE 24 30 13 16 - - -
13/12:00pm - - - - - ENE 26 32 14 17 - - -
13/11:30am - - - - - ENE 22 30 12 16 - - -
13/11:00am - - - - - ENE 19 26 10 14 - - -
13/10:30am - - - - - NNE 13 22 7 12 - - -
13/10:00am - - - - - NE 15 22 8 12 - - -
13/09:30am - - - - - N 9 17 5 9 - - -
13/09:00am - - - - - N 9 13 5 7 - - -
13/08:30am - - - - - N 11 17 6 9 - - -
13/08:00am - - - - - N 9 11 5 6 - - -
13/07:30am - - - - - NNE 4 6 2 3 - - -
13/07:00am - - - - - NW 4 6 2 3 - - -
13/06:30am - - - - - NW 2 4 1 2 - - -
13/06:00am - - - - - W 6 7 3 4 - - -
13/05:30am - - - - - W 6 9 3 5 - - -
13/05:00am - - - - - WNW 7 7 4 4 - - -
13/04:30am - - - - - W 13 13 7 7 - - -
13/04:00am - - - - - NNW 9 11 5 6 - - -
13/03:30am - - - - - NNW 7 9 4 5 - - -
13/03:00am - - - - - N 6 9 3 5 - - -
13/02:30am - - - - - NNW 7 9 4 5 - - -
13/02:00am - - - - - N 7 11 4 6 - - -
13/01:30am - - - - - NNE 9 15 5 8 - - -
13/01:00am - - - - - NNE 11 15 6 8 - - -
13/12:30am - - - - - NNE 11 19 6 10 - - -
13/12:00am - - - - - NE 13 22 7 12 - - -
 
Date/Time
EDT
Temp
°C
App
Temp
°C
Dew
Point
Rel
Hum
%
Delta-T
°C
Wind Press
QNH
hPa
Press
MSL
hPa
Rain
since 9 am
mm
Dir
 
Spd
km/h
Gust
km/h
Spd
kts
Gust
kts
12/11:30pm - - - - - NE 15 24 8 13 - - -
12/11:00pm - - - - - NE 17 26 9 14 - - -
12/10:30pm - - - - - ENE 22 32 12 17 - - -
12/10:00pm - - - - - ENE 20 32 11 17 - - -
12/09:30pm - - - - - ENE 20 28 11 15 - - -
12/09:00pm - - - - - ENE 22 30 12 16 - - -
12/08:30pm - - - - - ENE 19 26 10 14 - - -
12/08:00pm - - - - - ENE 22 28 12 15 - - -
12/07:30pm - - - - - ENE 26 33 14 18 - - -
12/07:00pm - - - - - ENE 24 33 13 18 - - -
12/06:30pm - - - - - ENE 28 32 15 17 - - -
12/06:00pm - - - - - E 20 26 11 14 - - -
12/05:30pm - - - - - ENE 24 30 13 16 - - -
12/05:00pm - - - - - ENE 22 26 12 14 - - -
12/04:30pm - - - - - ENE 22 26 12 14 - - -
12/04:00pm - - - - - E 19 26 10 14 - - -
12/03:30pm - - - - - E 20 28 11 15 - - -
12/03:00pm - - - - - E 22 28 12 15 - - -
12/02:30pm - - - - - E 22 28 12 15 - - -
12/02:00pm - - - - - E 24 28 13 15 - - -
12/01:30pm - - - - - E 22 26 12 14 - - -
12/01:00pm - - - - - E 20 22 11 12 - - -
12/12:30pm - - - - - E 20 22 11 12 - - -
12/12:00pm - - - - - E 20 22 11 12 - - -
12/11:30am - - - - - E 17 19 9 10 - - -
12/11:00am - - - - - E 11 15 6 8 - - -
12/10:30am - - - - - ESE 7 9 4 5 - - -
12/10:00am - - - - - ESE 4 6 2 3 - - -
12/09:30am - - - - - WSW 6 7 3 4 - - -
12/09:00am - - - - - W 7 9 4 5 - - -
12/08:30am - - - - - W 7 9 4 5 - - -
12/08:00am - - - - - W 9 11 5 6 - - -
12/07:30am - - - - - W 9 11 5 6 - - -
12/07:00am - - - - - W 9 11 5 6 - - -
12/06:30am - - - - - WNW 6 6 3 3 - - -
12/06:00am - - - - - NW 2 6 1 3 - - -
12/05:30am - - - - - NW 4 6 2 3 - - -
12/05:00am - - - - - SW 2 4 1 2 - - -
12/04:30am - - - - - NNW 4 4 2 2 - - -
12/04:00am - - - - - CALM 0 0 0 0 - - -
12/03:30am - - - - - CALM 0 2 0 1 - - -
12/03:00am - - - - - NE 4 4 2 2 - - -
12/02:30am - - - - - WSW 2 6 1 3 - - -
12/02:00am - - - - - NE 2 4 1 2 - - -
12/01:30am - - - - - ENE 6 7 3 4 - - -
12/01:00am - - - - - ENE 7 11 4 6 - - -
12/12:30am - - - - - ENE 13 17 7 9 - - -
12/12:00am - - - - - ESE 7 11 4 6 - - -
 
Date/Time
EDT
Temp
°C
App
Temp
°C
Dew
Point
Rel
Hum
%
Delta-T
°C
Wind Press
QNH
hPa
Press
MSL
hPa
Rain
since 9 am
mm
Dir
 
Spd
km/h
Gust
km/h
Spd
kts
Gust
kts
11/11:30pm - - - - - ENE 13 17 7 9 - - -
11/11:00pm - - - - - ENE 13 17 7 9 - - -
11/10:30pm - - - - - ENE 15 19 8 10 - - -
11/10:00pm - - - - - ENE 15 19 8 10 - - -
11/09:30pm - - - - - ENE 19 24 10 13 - - -
11/09:00pm - - - - - ENE 19 22 10 12 - - -
11/08:30pm - - - - - ENE 22 26 12 14 - - -
11/08:00pm - - - - - ENE 20 24 11 13 - - -
11/07:30pm - - - - - E 17 20 9 11 - - -
11/07:00pm - - - - - E 11 19 6 10 - - -
11/06:30pm - - - - - E 17 20 9 11 - - -
11/06:00pm - - - - - E 15 19 8 10 - - -
11/05:30pm - - - - - E 19 22 10 12 - - -
11/05:00pm - - - - - E 17 24 9 13 - - -
11/04:30pm - - - - - E 20 24 11 13 - - -
11/04:00pm - - - - - E 20 24 11 13 - - -
11/03:30pm - - - - - E 20 26 11 14 - - -
11/03:00pm - - - - - E 20 24 11 13 - - -
11/02:30pm - - - - - E 17 20 9 11 - - -
11/02:00pm - - - - - E 19 22 10 12 - - -
11/01:30pm - - - - - E 19 22 10 12 - - -
11/01:00pm - - - - - E 15 19 8 10 - - -
11/12:30pm - - - - - E 15 19 8 10 - - -
11/12:00pm - - - - - E 17 19 9 10 - - -
11/11:30am - - - - - E 13 15 7 8 - - -
11/11:00am - - - - - E 15 19 8 10 - - -
11/10:30am - - - - - E 13 17 7 9 - - -
11/10:00am - - - - - E 17 20 9 11 - - -
11/09:30am - - - - - ESE 7 9 4 5 - - -
11/09:00am - - - - - WSW 6 7 3 4 - - -
11/08:30am - - - - - W 4 7 2 4 - - -
11/08:00am - - - - - WNW 6 7 3 4 - - -
11/07:30am - - - - - NNW 4 6 2 3 - - -
11/07:00am - - - - - NNW 2 4 1 2 - - -
11/06:30am - - - - - WSW 2 4 1 2 - - -

Other Formats:

Comma delimited format used in spreadsheet applications
http://www.bom.gov.au/fwo/IDN60801/IDN60801.94769.axf

JavaScript Object Notation format (JSON) in row-major order
http://www.bom.gov.au/fwo/IDN60801/IDN60801.94769.json